Terminal Aerodrome Forecast
Issued by NWS Lake Charles, LA

Home | Current Version | Previous Version | Text Only | Print | Product List | Glossary On
Versions: 1 2 3 4 5 6 7 8 9 10 11 12 13 14 15 16 17 18 19 20 21 22
000
FTUS44 KLCH 250500
TAFLCH
TAF
KLCH 250520Z 2506/2606 00000KT P6SM SCT070
      TEMPO 2508/2512 36005KT 4SM BR OVC009
     FM251200 04006KT P6SM OVC015
     FM251500 07005KT P6SM FEW250=

USA.gov is the U.S. government's official web portal to all federal, state and local government web resources and services.